»·PEaware :: AAL394 KTUL-KDFW

AAL394 :: KTUL-KDFW

FLIGHT INFORMATION

Flight Status: Arrived
Operator:
American Airlines
More flights by this operator :: More flights under this callsign
Pilot: John H. (7647)
Aircraft: BOEING 737-800
(B738)
More flights by this aircraft type
Origin: KTUL Tulsa Intl
United States
Destination: KDFW Dallas-Ft Worth Intl
United States
More flights between these airports :: More routes between these airports
Route: PEJAY AXXEE SEEVR4
File this flight plan on PilotEdge
Remarks: PBN / A1B1C1D1S1S2 DOF / 180926 REG / N806SB EET / KZFW0005 OPR / AAL PER / C RMK / TCAS SIMBRIEF
Altitude:
(Current/Filed)
30,000ft
Speed:
(Current/Filed)
475kts
Departed: 26-Sep-18 07:34 AM
Arrived: 26-Sep-18 08:33 AM
Distance/Time
Traveled:
206nm/0:58
Distance/Time
To Go:
Arrived

Flight Plot

Page will automatically refresh every two minutes.

Flight plan parsing failed; only flown route is shown


Map Options




Map Legend


Flown Route
Filed Route
Departure Airport
Arrival Airport
Navaid (VOR, NDB)
Fix

Horizontal Profiles

Position Reports

Time Latitude Longitude Heading Altitude Ground
Speed
26-Sep-18 07:24 36.193326 -95.889127 131 654ft 0kts
26-Sep-18 07:25 36.193715 -95.889315 188 653ft 2kts
26-Sep-18 07:26 36.194098 -95.888819 266 652ft 2kts
26-Sep-18 07:27 36.193994 -95.888422 310 653ft 0kts
26-Sep-18 07:28 36.193994 -95.888422 310 653ft 0kts
26-Sep-18 07:29 36.194055 -95.888508 312 652ft 2kts
26-Sep-18 07:30 36.194614 -95.887613 93 651ft 9kts
26-Sep-18 07:31 36.194294 -95.885487 210 651ft 5kts
26-Sep-18 07:32 36.192522 -95.885747 127 651ft 10kts
26-Sep-18 07:33 36.189693 -95.885678 184 652ft 14kts
26-Sep-18 07:34 36.188094 -95.884021 92 648ft 0kts
26-Sep-18 07:35 36.189474 -95.882934 2 646ft 29kts
26-Sep-18 07:36 36.220723 -95.880238 7 1026ft 149kts
26-Sep-18 07:37 36.237348 -95.841215 91 3216ft 161kts
26-Sep-18 07:38 36.224249 -95.790906 159 5024ft 173kts
26-Sep-18 07:39 36.165793 -95.774613 168 5729ft 263kts
26-Sep-18 07:40 36.095750 -95.757049 168 8292ft 287kts
26-Sep-18 07:41 36.014460 -95.736637 171 10510ft 313kts
26-Sep-18 07:42 35.931085 -95.715812 170 13615ft 312kts
26-Sep-18 07:43 35.846548 -95.694715 170 16075ft 325kts
26-Sep-18 07:44 35.756939 -95.672419 170 18384ft 338kts
26-Sep-18 07:45 35.663696 -95.649343 172 20504ft 350kts
26-Sep-18 07:46 35.567148 -95.660574 189 22437ft 358kts
26-Sep-18 07:47 35.468307 -95.678629 189 24223ft 368kts
26-Sep-18 07:48 35.367803 -95.696747 189 25870ft 378kts
26-Sep-18 07:49 35.264462 -95.715258 190 27482ft 387kts
26-Sep-18 07:50 35.158300 -95.734197 190 28874ft 396kts
26-Sep-18 07:51 35.051928 -95.753105 190 30230ft 400kts
26-Sep-18 07:52 34.938364 -95.773343 190 30242ft 433kts
26-Sep-18 07:53 34.823284 -95.793693 190 30238ft 438kts
26-Sep-18 07:54 34.708851 -95.813857 190 30238ft 438kts
26-Sep-18 07:55 34.590226 -95.834663 190 30238ft 437kts
26-Sep-18 07:56 34.470947 -95.855512 190 30238ft 437kts
26-Sep-18 07:57 34.354071 -95.875845 190 30238ft 426kts
26-Sep-18 07:58 34.242556 -95.914348 202 30235ft 422kts
26-Sep-18 07:59 34.134319 -95.961873 201 28240ft 417kts
26-Sep-18 08:00 34.025118 -96.009817 201 25771ft 409kts
26-Sep-18 08:01 33.924174 -96.054692 201 23322ft 392kts
26-Sep-18 08:02 33.834918 -96.092995 200 21630ft 367kts
26-Sep-18 08:03 33.741545 -96.132706 200 19894ft 360kts
26-Sep-18 08:04 33.655003 -96.169432 200 18277ft 351kts
26-Sep-18 08:05 33.565324 -96.207385 200 16445ft 342kts
26-Sep-18 08:06 33.479564 -96.243622 199 14819ft 321kts
26-Sep-18 08:07 33.412274 -96.302790 227 13316ft 309kts
26-Sep-18 08:08 33.358606 -96.377378 227 11871ft 288kts
26-Sep-18 08:09 33.316286 -96.451494 248 10657ft 271kts
26-Sep-18 08:10 33.293490 -96.536267 249 9618ft 272kts
26-Sep-18 08:11 33.281832 -96.625461 266 8579ft 286kts
26-Sep-18 08:12 33.278890 -96.716132 267 7490ft 283kts
26-Sep-18 08:13 33.274948 -96.808601 269 6404ft 269kts
26-Sep-18 08:14 33.240380 -96.871954 185 6054ft 261kts
26-Sep-18 08:15 33.168289 -96.872469 181 6028ft 262kts
26-Sep-18 08:16 33.095697 -96.874704 182 6021ft 263kts
26-Sep-18 08:17 33.025474 -96.876896 182 6032ft 263kts
26-Sep-18 08:18 32.953228 -96.879422 181 6029ft 265kts
26-Sep-18 08:19 32.883130 -96.882161 181 6026ft 264kts
26-Sep-18 08:20 32.811431 -96.885059 181 6027ft 265kts
26-Sep-18 08:21 32.740818 -96.887941 182 6026ft 264kts
26-Sep-18 08:22 32.668156 -96.890893 181 6025ft 264kts
26-Sep-18 08:23 32.607722 -96.893310 182 6027ft 265kts
26-Sep-18 08:24 32.522028 -96.895872 182 6000ft 266kts
26-Sep-18 08:25 32.461900 -96.897621 188 5999ft 267kts
26-Sep-18 08:26 32.457186 -96.963444 335 6023ft 236kts
26-Sep-18 08:27 32.516619 -96.993599 338 6000ft 235kts
26-Sep-18 08:28 32.566263 -97.018230 338 5999ft 236kts
26-Sep-18 08:29 32.629861 -97.032328 3 5345ft 246kts
26-Sep-18 08:30 32.696549 -97.031043 1 4077ft 237kts
26-Sep-18 08:31 32.760244 -97.030753 1 2858ft 231kts
26-Sep-18 08:32 32.817429 -97.030444 1 1761ft 181kts
26-Sep-18 08:33 32.861012 -97.030209 1 935ft 146kts
26-Sep-18 08:34 32.897147 -97.029986 3 572ft 77kts
26-Sep-18 08:35 32.903505 -97.031170 330 576ft 1kts
26-Sep-18 08:36 32.904626 -97.032624 276 582ft 9kts
26-Sep-18 08:37 32.904702 -97.035106 266 588ft 0kts
26-Sep-18 08:38 32.904702 -97.035106 266 588ft 0kts
26-Sep-18 08:39 32.904702 -97.035106 266 588ft 0kts

Navigation Log

Ident Type
Flight plan parsing failed, navigation log unavailable